TimeEST,TemperatureF,Dew PointF,Humidity,Sea Level PressureIn,VisibilityMPH,Wind Direction,Wind SpeedMPH,Gust SpeedMPH,PrecipitationIn,Events,Conditions,WindDirDegrees,DateUTC
12:53 AM,27.0,17.1,66,30.13,10.0,NNE,8.1,-,N/A,,Overcast,30,2013-03-03 05:53:00
1:53 AM,26.1,16.0,66,30.13,10.0,Variable,5.8,-,N/A,,Overcast,0,2013-03-03 06:53:00
2:53 AM,25.0,15.1,66,30.12,10.0,NE,5.8,-,N/A,,Overcast,40,2013-03-03 07:53:00
3:53 AM,25.0,15.1,66,30.11,10.0,ENE,4.6,-,N/A,,Overcast,70,2013-03-03 08:53:00
4:53 AM,23.0,14.0,68,30.10,10.0,ENE,4.6,-,N/A,,Mostly Cloudy,60,2013-03-03 09:53:00
5:53 AM,23.0,14.0,68,30.11,10.0,ENE,3.5,-,N/A,,Overcast,70,2013-03-03 10:53:00
6:53 AM,21.9,14.0,72,30.12,8.0,Calm,Calm,-,0.00,Snow,Light Snow,0,2013-03-03 11:53:00
7:53 AM,23.0,14.0,68,30.13,8.0,Calm,Calm,-,0.00,,Overcast,0,2013-03-03 12:53:00
8:53 AM,23.0,15.1,72,30.14,3.0,Calm,Calm,-,0.00,Snow,Light Snow,0,2013-03-03 13:53:00
9:53 AM,24.1,17.1,75,30.14,8.0,Calm,Calm,-,0.00,,Overcast,0,2013-03-03 14:53:00
10:00 AM,24.8,17.6,74,30.11,6.0,Calm,Calm,-,0.00,Snow,Light Snow,0,2013-03-03 15:00:00
10:39 AM,26.6,19.4,74,30.10,10.0,Variable,3.5,-,0.00,,Overcast,0,2013-03-03 15:39:00
10:53 AM,27.0,19.0,72,30.13,10.0,Calm,Calm,-,0.00,,Overcast,0,2013-03-03 15:53:00
11:53 AM,28.9,17.1,61,30.12,10.0,NW,6.9,-,N/A,,Overcast,320,2013-03-03 16:53:00
12:53 PM,30.0,18.0,61,30.11,10.0,Variable,5.8,-,N/A,,Mostly Cloudy,0,2013-03-03 17:53:00
1:53 PM,30.9,15.1,52,30.09,10.0,NNW,9.2,-,N/A,,Partly Cloudy,330,2013-03-03 18:53:00
2:53 PM,30.9,14.0,50,30.09,10.0,North,9.2,17.3,N/A,,Clear,350,2013-03-03 19:53:00
3:53 PM,30.0,15.1,54,30.09,10.0,Variable,6.9,18.4,N/A,,Partly Cloudy,0,2013-03-03 20:53:00
5:53 PM,28.0,15.1,58,30.10,10.0,WNW,9.2,-,N/A,,Scattered Clouds,300,2013-03-03 22:53:00
6:53 PM,27.0,14.0,58,30.11,10.0,Variable,4.6,-,N/A,,Partly Cloudy,0,2013-03-03 23:53:00
7:28 PM,26.6,15.8,64,30.09,10.0,NW,5.8,-,N/A,,Mostly Cloudy,320,2013-03-04 00:28:00
7:53 PM,26.1,15.1,63,30.12,10.0,Variable,4.6,-,N/A,,Mostly Cloudy,0,2013-03-04 00:53:00
8:53 PM,26.1,15.1,63,30.12,10.0,NW,4.6,-,N/A,,Mostly Cloudy,320,2013-03-04 01:53:00
9:53 PM,27.0,15.1,61,30.12,10.0,Variable,4.6,-,N/A,,Mostly Cloudy,0,2013-03-04 02:53:00
10:53 PM,27.0,16.0,63,30.11,10.0,Variable,3.5,-,N/A,,Mostly Cloudy,0,2013-03-04 03:53:00
11:53 PM,27.0,16.0,63,30.12,10.0,NNW,4.6,-,N/A,,Mostly Cloudy,340,2013-03-04 04:53:00